Time;durP1;ratioP1;P1;durP2;ratioP2;P2;SDS_P1;SDS_P2;PMS_P1;PMS_P2;Temp;Humidity;BMP_temperature;BMP_pressure;BME280_temperature;BME280_humidity;BME280_pressure;Samples;Min_cycle;Max_cycle;Signal;HPM_P1;HPM_P2
2023/08/27 00:01:03;;;;;;;3.27;1.43;;;;;;;14.51;97.12;100672.16;5095248;28;20540;-68
2023/08/27 00:03:30;;;;;;;3.43;1.20;;;;;;;14.49;97.11;100675.22;5094892;28;20922;-67
2023/08/27 00:05:57;;;;;;;3.10;1.20;;;;;;;14.50;97.47;100668.63;5095647;28;20460;-68
2023/08/27 00:08:24;;;;;;;2.83;1.23;;;;;;;14.56;97.59;100671.97;5095099;28;20476;-68
2023/08/27 00:10:57;;;;;;;2.80;1.30;;;;;;;14.55;97.08;100670.38;5094583;28;20519;-68
2023/08/27 00:13:24;;;;;;;3.13;1.23;;;;;;;14.51;97.00;100666.69;5094971;28;20425;-68
2023/08/27 00:15:50;;;;;;;3.53;1.47;;;;;;;14.45;97.40;100657.06;5094669;28;20551;-68
2023/08/27 00:18:17;;;;;;;2.93;1.47;;;;;;;14.41;97.29;100650.66;5094886;28;20523;-68
2023/08/27 00:20:46;;;;;;;2.43;0.83;;;;;;;14.35;97.87;100637.22;5095046;28;20520;-68
2023/08/27 00:23:13;;;;;;;3.10;1.10;;;;;;;14.41;97.35;100631.59;5094929;28;20476;-68
2023/08/27 00:25:40;;;;;;;3.90;1.40;;;;;;;14.35;97.79;100625.53;5095623;28;20998;-68
2023/08/27 00:28:08;;;;;;;4.67;1.87;;;;;;;14.37;97.99;100621.34;5098304;28;20948;-68
2023/08/27 00:30:34;;;;;;;3.40;0.90;;;;;;;14.36;97.67;100633.38;5094514;28;20434;-68
2023/08/27 00:33:01;;;;;;;3.33;1.57;;;;;;;14.26;97.90;100638.38;5094885;28;20954;-68
2023/08/27 00:35:28;;;;;;;2.53;0.80;;;;;;;14.24;97.98;100646.06;5094724;28;20452;-68
2023/08/27 00:37:54;;;;;;;3.73;1.40;;;;;;;14.29;97.53;100646.69;5094662;28;20520;-68
2023/08/27 00:40:21;;;;;;;3.13;1.37;;;;;;;14.34;96.77;100651.16;5094697;28;20445;-68
2023/08/27 00:42:48;;;;;;;4.83;1.53;;;;;;;14.36;96.53;100648.91;5094590;28;20511;-68
2023/08/27 00:45:16;;;;;;;2.60;1.23;;;;;;;14.27;97.08;100648.94;5094124;28;21034;-68
2023/08/27 00:47:42;;;;;;;3.43;1.47;;;;;;;14.23;97.30;100650.72;5094390;28;20444;-67
2023/08/27 00:50:11;;;;;;;2.93;1.27;;;;;;;14.24;97.90;100641.41;5094539;28;20443;-67
2023/08/27 00:52:38;;;;;;;2.40;1.00;;;;;;;14.16;98.00;100639.50;5094033;28;20495;-67
2023/08/27 00:55:06;;;;;;;2.93;1.23;;;;;;;14.19;97.67;100638.84;5094322;28;20456;-67
2023/08/27 00:57:33;;;;;;;2.70;1.20;;;;;;;14.19;97.54;100638.06;5094442;28;20468;-67
2023/08/27 01:00:00;;;;;;;2.60;1.30;;;;;;;14.17;97.07;100635.66;5094192;28;20539;-67
2023/08/27 01:02:28;;;;;;;3.13;1.60;;;;;;;14.15;97.08;100621.56;5094155;28;20825;-67
2023/08/27 01:04:55;;;;;;;2.87;0.77;;;;;;;14.12;97.45;100627.63;5094008;28;20444;-67
2023/08/27 01:07:28;;;;;;;3.00;1.00;;;;;;;14.14;97.80;100636.31;5093668;28;20999;-67
2023/08/27 01:10:02;;;;;;;2.80;1.23;;;;;;;14.04;98.15;100642.91;5093595;28;20872;-67
2023/08/27 01:12:36;;;;;;;4.43;1.17;;;;;;;14.03;98.51;100627.69;5093809;28;20471;-68
2023/08/27 01:15:05;;;;;;;3.43;1.37;;;;;;;14.11;98.46;100615.16;5093646;28;20987;-68
2023/08/27 01:17:35;;;;;;;2.97;1.40;;;;;;;14.06;98.53;100628.94;5094082;28;20609;-68
2023/08/27 01:20:02;;;;;;;3.57;1.23;;;;;;;14.15;98.77;100640.63;5093558;28;20998;-68
2023/08/27 01:22:30;;;;;;;2.97;1.03;;;;;;;14.09;98.45;100636.47;5093853;28;20464;-68
2023/08/27 01:24:57;;;;;;;3.23;1.10;;;;;;;14.12;98.03;100649.44;5093361;28;20476;-68
2023/08/27 01:27:29;;;;;;;2.30;0.73;;;;;;;14.09;98.21;100633.75;5093567;28;20789;-68
2023/08/27 01:30:06;;;;;;;2.40;1.00;;;;;;;14.05;98.02;100627.34;5093359;28;20412;-68
2023/08/27 01:32:38;;;;;;;2.37;0.97;;;;;;;14.03;96.88;100619.53;5093530;28;20559;-68
2023/08/27 01:35:07;;;;;;;3.00;1.20;;;;;;;14.04;95.50;100614.88;5093653;28;20539;-68
2023/08/27 01:37:36;;;;;;;2.57;1.00;;;;;;;13.93;94.11;100625.28;5093552;28;20936;-68
2023/08/27 01:40:05;;;;;;;3.20;1.70;;;;;;;13.91;94.76;100637.63;5094360;28;20446;-68
2023/08/27 01:42:32;;;;;;;3.33;1.03;;;;;;;13.83;96.17;100650.91;5098242;28;20447;-68
2023/08/27 01:44:59;;;;;;;2.90;1.30;;;;;;;13.77;97.35;100654.94;5097428;28;20884;-68
2023/08/27 01:47:26;;;;;;;2.63;1.10;;;;;;;13.83;97.60;100653.63;5098169;28;20436;-66
2023/08/27 01:49:52;;;;;;;2.30;0.70;;;;;;;13.87;97.56;100638.25;5097637;28;20487;-67
2023/08/27 01:52:19;;;;;;;2.90;1.50;;;;;;;13.97;97.99;100630.88;5097505;28;20484;-67
2023/08/27 01:54:47;;;;;;;2.80;1.30;;;;;;;13.95;98.63;100627.69;5097516;28;20511;-67
2023/08/27 01:57:14;;;;;;;2.50;1.03;;;;;;;13.94;99.04;100634.25;5097509;28;20467;-67
2023/08/27 01:59:40;;;;;;;2.60;1.13;;;;;;;13.92;99.40;100636.50;5097550;28;20629;-67
2023/08/27 02:02:07;;;;;;;5.73;1.90;;;;;;;13.99;98.46;100636.78;5097148;28;20936;-68
2023/08/27 02:04:33;;;;;;;3.33;1.43;;;;;;;14.04;98.52;100621.09;5097392;28;20440;-68
2023/08/27 02:07:00;;;;;;;2.80;1.20;;;;;;;14.06;98.55;100598.97;5096961;28;20460;-68
2023/08/27 02:09:27;;;;;;;3.07;1.50;;;;;;;14.06;99.06;100594.34;5097564;28;20440;-68
2023/08/27 02:11:55;;;;;;;3.67;1.40;;;;;;;14.08;99.20;100607.66;5097404;28;20515;-68
2023/08/27 02:14:22;;;;;;;2.73;1.17;;;;;;;14.02;99.70;100608.94;5096888;28;20440;-68
2023/08/27 02:16:48;;;;;;;3.50;1.53;;;;;;;14.02;99.29;100609.72;5116764;22;20916;-73
2023/08/27 02:19:16;;;;;;;3.60;1.10;;;;;;;14.02;99.45;100600.75;5099208;28;20966;-77
2023/08/27 02:21:42;;;;;;;3.80;1.60;;;;;;;14.03;99.46;100573.22;5101941;28;20442;-70
2023/08/27 02:24:09;;;;;;;2.80;1.20;;;;;;;14.14;98.98;100565.47;5102096;28;20471;-71
2023/08/27 02:26:36;;;;;;;3.03;1.43;;;;;;;14.12;99.00;100590.34;5099215;28;20482;-71
2023/08/27 02:29:04;;;;;;;2.67;1.23;;;;;;;14.07;99.72;100595.13;5100294;28;20433;-71
2023/08/27 02:31:30;;;;;;;2.70;1.00;;;;;;;13.98;100.00;100597.88;5100704;28;20484;-71
2023/08/27 02:33:57;;;;;;;2.70;1.00;;;;;;;14.02;100.00;100606.19;5100687;28;20456;-71
2023/08/27 02:36:24;;;;;;;4.33;1.63;;;;;;;14.03;100.00;100622.25;5100503;28;20544;-71
2023/08/27 02:38:50;;;;;;;4.30;1.20;;;;;;;14.07;99.80;100623.16;5100496;28;20441;-71
2023/08/27 02:41:17;;;;;;;3.13;1.40;;;;;;;14.05;96.77;100621.91;5099877;28;20539;-71
2023/08/27 02:43:43;;;;;;;4.30;1.40;;;;;;;13.95;96.12;100619.53;5100088;28;20520;-72
2023/08/27 02:46:12;;;;;;;3.23;1.00;;;;;;;13.99;95.22;100609.56;5099712;28;20460;-72
2023/08/27 02:48:38;;;;;;;3.10;1.50;;;;;;;13.97;95.90;100604.44;5100122;28;20928;-71
2023/08/27 02:51:05;;;;;;;2.87;0.87;;;;;;;14.01;97.14;100596.44;5100158;28;20452;-71
2023/08/27 02:53:31;;;;;;;2.30;0.97;;;;;;;14.05;98.15;100590.03;5099131;28;20523;-71
2023/08/27 02:55:58;;;;;;;3.13;1.63;;;;;;;14.07;98.41;100581.50;5100172;28;21062;-71
2023/08/27 02:58:25;;;;;;;2.50;1.00;;;;;;;14.14;99.12;100590.00;5100762;28;20441;-71
2023/08/27 03:00:51;;;;;;;3.13;1.37;;;;;;;14.10;99.64;100597.22;5100106;28;20957;-71
2023/08/27 03:03:19;;;;;;;2.67;0.90;;;;;;;14.06;99.94;100596.25;5100051;28;20920;-71
2023/08/27 03:05:46;;;;;;;3.60;1.10;;;;;;;14.06;100.00;100615.31;5100061;28;20490;-71
2023/08/27 03:08:13;;;;;;;3.60;1.60;;;;;;;14.07;100.00;100622.38;5100687;28;20500;-71
2023/08/27 03:10:39;;;;;;;2.80;1.20;;;;;;;14.07;100.00;100627.81;5100088;28;20875;-71
2023/08/27 03:13:06;;;;;;;3.40;1.10;;;;;;;14.09;100.00;100628.31;5100910;28;20575;-71
2023/08/27 03:15:33;;;;;;;3.17;1.00;;;;;;;14.10;100.00;100619.81;5099585;28;20456;-71
2023/08/27 03:17:59;;;;;;;2.60;1.03;;;;;;;14.17;99.99;100594.81;5099881;28;20520;-71
2023/08/27 03:20:27;;;;;;;2.77;0.90;;;;;;;14.15;100.00;100602.50;5099929;28;20512;-71
2023/08/27 03:22:54;;;;;;;2.40;0.90;;;;;;;14.09;100.00;100599.16;5100520;28;20436;-71
2023/08/27 03:25:21;;;;;;;2.90;1.13;;;;;;;14.16;100.00;100593.19;5100662;28;20480;-71
2023/08/27 03:27:47;;;;;;;3.73;1.43;;;;;;;14.17;100.00;100600.25;5100412;28;20520;-71
2023/08/27 03:30:14;;;;;;;2.70;0.90;;;;;;;14.17;100.00;100607.63;5101919;28;20456;-71
2023/08/27 03:32:40;;;;;;;2.30;0.73;;;;;;;14.17;100.00;100605.69;5102135;28;20822;-71
2023/08/27 03:35:08;;;;;;;3.67;1.60;;;;;;;14.19;100.00;100611.63;5102934;28;20471;-70
2023/08/27 03:37:36;;;;;;;2.60;1.10;;;;;;;14.14;100.00;100609.88;5101839;28;20531;-69
2023/08/27 03:40:03;;;;;;;3.70;1.63;;;;;;;14.20;100.00;100596.88;5102611;28;20494;-70
2023/08/27 03:42:29;;;;;;;2.30;0.80;;;;;;;14.21;99.78;100589.47;5103031;28;20464;-69
2023/08/27 03:44:57;;;;;;;2.30;0.80;;;;;;;14.22;99.88;100585.66;5103414;28;20440;-70
2023/08/27 03:47:24;;;;;;;4.10;1.50;;;;;;;14.11;100.00;100594.16;5102852;28;20516;-70
2023/08/27 03:49:51;;;;;;;3.13;1.27;;;;;;;14.13;100.00;100581.03;5102020;28;20476;-70
2023/08/27 03:52:17;;;;;;;3.33;1.00;;;;;;;14.14;100.00;100562.75;5099976;28;20579;-71
2023/08/27 03:54:45;;;;;;;2.77;0.73;;;;;;;14.11;100.00;100552.50;5101766;28;20531;-71
2023/08/27 03:57:12;;;;;;;2.60;0.87;;;;;;;14.13;100.00;100551.06;5101365;28;20464;-72
2023/08/27 03:59:39;;;;;;;2.70;1.00;;;;;;;14.12;100.00;100543.19;5101284;28;20460;-72
2023/08/27 04:02:05;;;;;;;4.33;1.50;;;;;;;14.07;100.00;100541.44;5101540;28;20468;-72
2023/08/27 04:04:33;;;;;;;3.03;1.10;;;;;;;14.16;100.00;100535.97;5100581;28;21040;-72
2023/08/27 04:06:59;;;;;;;2.37;0.83;;;;;;;14.08;100.00;100539.56;5101537;28;20466;-69
2023/08/27 04:09:26;;;;;;;2.30;0.90;;;;;;;14.19;100.00;100565.31;5101121;28;20437;-70
2023/08/27 04:11:54;;;;;;;2.90;1.30;;;;;;;14.23;100.00;100568.97;5101372;28;20442;-70
2023/08/27 04:14:20;;;;;;;2.97;1.37;;;;;;;14.19;98.07;100562.56;5101476;28;20997;-70
2023/08/27 04:16:47;;;;;;;2.70;1.00;;;;;;;14.14;97.86;100560.84;5101707;28;20555;-70
2023/08/27 04:19:14;;;;;;;2.10;0.80;;;;;;;14.12;97.35;100557.66;5101910;28;20954;-68
2023/08/27 04:21:41;;;;;;;4.03;1.00;;;;;;;14.08;97.62;100566.78;5098714;28;20489;-68
2023/08/27 04:24:08;;;;;;;2.50;0.80;;;;;;;14.12;98.15;100556.81;5098164;28;20520;-68
2023/08/27 04:26:35;;;;;;;2.83;1.20;;;;;;;14.14;99.26;100563.56;5099992;28;20467;-68
2023/08/27 04:29:03;;;;;;;3.13;1.37;;;;;;;14.11;100.00;100557.94;5101425;28;20500;-69
2023/08/27 04:31:29;;;;;;;2.70;0.70;;;;;;;14.15;100.00;100558.91;5100686;28;20460;-69
2023/08/27 04:33:56;;;;;;;2.87;1.20;;;;;;;14.06;100.00;100571.75;5100180;28;20568;-69
2023/08/27 04:36:23;;;;;;;3.33;1.00;;;;;;;14.12;100.00;100563.09;5100795;28;20975;-69
2023/08/27 04:38:49;;;;;;;2.40;1.10;;;;;;;14.18;100.00;100563.72;5100947;28;21019;-69
2023/08/27 04:41:16;;;;;;;2.77;1.20;;;;;;;14.22;100.00;100567.38;5101695;28;20500;-69
2023/08/27 04:43:43;;;;;;;4.00;1.77;;;;;;;14.23;100.00;100584.53;5101806;28;20490;-69
2023/08/27 04:46:11;;;;;;;2.50;0.97;;;;;;;14.21;100.00;100603.94;5101875;28;20523;-69
2023/08/27 04:48:38;;;;;;;3.00;1.20;;;;;;;14.27;100.00;100605.34;5102027;28;20508;-69
2023/08/27 04:51:05;;;;;;;3.17;0.90;;;;;;;14.37;100.00;100596.00;5101337;28;20452;-69
2023/08/27 04:53:32;;;;;;;2.10;0.70;;;;;;;14.41;100.00;100582.53;5101536;28;20537;-69
2023/08/27 04:55:58;;;;;;;2.40;0.93;;;;;;;14.46;100.00;100579.63;5101648;28;20469;-69
2023/08/27 04:58:25;;;;;;;2.47;0.80;;;;;;;14.49;100.00;100584.47;5100360;28;20432;-69
2023/08/27 05:00:52;;;;;;;2.80;1.30;;;;;;;14.56;100.00;100595.63;5100971;28;20440;-69
2023/08/27 05:03:20;;;;;;;3.10;1.20;;;;;;;14.60;100.00;100582.97;5100566;28;20519;-69
2023/08/27 05:05:47;;;;;;;2.60;1.00;;;;;;;14.65;100.00;100580.03;5100274;28;20472;-69
2023/08/27 05:08:14;;;;;;;2.23;0.67;;;;;;;14.67;100.00;100569.63;5099854;28;20498;-70
2023/08/27 05:10:41;;;;;;;3.50;1.10;;;;;;;14.73;100.00;100578.41;5101095;28;20448;-70
2023/08/27 05:13:08;;;;;;;2.30;0.90;;;;;;;14.75;100.00;100585.13;5100066;28;20847;-70
2023/08/27 05:15:34;;;;;;;2.40;0.80;;;;;;;14.74;100.00;100599.91;5097676;28;20496;-70
2023/08/27 05:18:01;;;;;;;2.67;1.13;;;;;;;14.78;100.00;100600.81;5098505;28;20612;-70
2023/08/27 05:20:29;;;;;;;2.40;1.00;;;;;;;14.83;100.00;100587.03;5099663;28;20448;-70
2023/08/27 05:22:56;;;;;;;3.00;1.43;;;;;;;14.89;100.00;100577.50;5099823;28;20458;-70
2023/08/27 05:25:23;;;;;;;3.33;1.07;;;;;;;14.98;100.00;100565.75;5099883;28;20503;-70
2023/08/27 05:27:49;;;;;;;2.27;0.80;;;;;;;15.08;100.00;100549.00;5100446;28;20528;-70
2023/08/27 05:30:16;;;;;;;2.60;0.90;;;;;;;15.16;100.00;100558.25;5100183;28;20437;-70
2023/08/27 05:32:43;;;;;;;5.33;1.60;;;;;;;15.21;100.00;100564.31;5100117;28;20900;-70
2023/08/27 05:35:10;;;;;;;2.30;0.77;;;;;;;15.32;100.00;100587.34;5099454;28;20488;-70
2023/08/27 05:37:38;;;;;;;3.60;1.40;;;;;;;15.32;100.00;100595.53;5099165;28;20440;-70
2023/08/27 05:40:06;;;;;;;2.33;0.97;;;;;;;15.47;100.00;100593.31;5099503;28;20508;-70
2023/08/27 05:42:35;;;;;;;3.60;1.47;;;;;;;15.53;100.00;100587.31;5099565;28;20441;-70
2023/08/27 05:45:03;;;;;;;2.50;1.20;;;;;;;15.62;100.00;100593.50;5099637;28;20989;-70
2023/08/27 05:47:29;;;;;;;3.33;1.73;;;;;;;15.81;100.00;100590.34;5098991;28;20448;-70
2023/08/27 05:49:56;;;;;;;2.67;1.17;;;;;;;15.85;100.00;100574.06;5099051;28;20523;-70
2023/08/27 05:52:23;;;;;;;2.80;1.07;;;;;;;15.96;100.00;100569.75;5098922;28;20486;-70
2023/08/27 05:54:52;;;;;;;5.00;1.40;;;;;;;16.00;100.00;100561.69;5100509;28;20872;-71
2023/08/27 05:57:19;;;;;;;3.00;1.37;;;;;;;16.09;100.00;100565.13;5096552;28;20512;-71
2023/08/27 05:59:45;;;;;;;3.03;1.43;;;;;;;16.14;100.00;100573.09;5093268;28;20940;-72
2023/08/27 06:02:13;;;;;;;2.67;1.10;;;;;;;16.19;100.00;100559.22;5097587;28;20433;-72
2023/08/27 06:04:40;;;;;;;3.00;1.23;;;;;;;16.23;99.11;100546.47;5093136;28;20925;-72
2023/08/27 06:07:07;;;;;;;3.17;1.13;;;;;;;16.29;98.65;100549.78;5092829;28;20514;-72
2023/08/27 06:09:34;;;;;;;2.90;1.30;;;;;;;16.34;100.00;100546.84;5093316;28;20443;-72
2023/08/27 06:12:03;;;;;;;4.80;2.00;;;;;;;16.53;100.00;100557.22;5093358;28;20468;-72
2023/08/27 06:14:29;;;;;;;3.50;1.37;;;;;;;16.62;100.00;100552.41;5093518;28;20484;-73
2023/08/27 06:16:56;;;;;;;2.90;1.27;;;;;;;16.75;100.00;100556.78;5094147;28;20632;-73
2023/08/27 06:19:23;;;;;;;3.30;1.20;;;;;;;16.89;100.00;100553.69;5099392;28;20432;-73
2023/08/27 06:21:50;;;;;;;2.90;1.20;;;;;;;17.02;100.00;100552.50;5092703;28;20440;-72
2023/08/27 06:24:17;;;;;;;2.60;0.93;;;;;;;17.13;100.00;100566.50;5110233;28;20432;-72
2023/08/27 06:26:43;;;;;;;3.40;1.77;;;;;;;17.24;100.00;100566.84;5110273;28;20460;-72
2023/08/27 06:29:12;;;;;;;2.60;1.03;;;;;;;17.32;100.00;100572.19;5114574;28;20432;-72
2023/08/27 06:31:39;;;;;;;2.73;1.07;;;;;;;17.41;100.00;100577.50;5114693;28;20444;-72
2023/08/27 06:34:06;;;;;;;3.43;1.43;;;;;;;17.49;100.00;100571.09;5114217;28;20478;-72
2023/08/27 06:36:33;;;;;;;2.63;1.13;;;;;;;17.55;100.00;100574.38;5096139;28;20464;-72
2023/08/27 06:38:58;;;;;;;4.70;1.87;;;;;;;17.63;100.00;100582.44;5114729;28;20440;-72
2023/08/27 06:41:25;;;;;;;5.60;1.33;;;;;;;17.70;100.00;100576.34;5116683;28;20444;-72
2023/08/27 06:43:52;;;;;;;3.20;1.40;;;;;;;17.81;100.00;100568.47;5112942;28;20202;-72
2023/08/27 06:46:20;;;;;;;2.87;1.27;;;;;;;17.95;100.00;100577.06;5112500;28;20457;-72
2023/08/27 06:48:47;;;;;;;3.30;1.63;;;;;;;18.09;100.00;100577.44;5112363;28;20441;-72
2023/08/27 06:51:13;;;;;;;3.07;1.13;;;;;;;18.19;100.00;100569.84;5112218;28;20500;-72
2023/08/27 06:53:40;;;;;;;3.93;1.53;;;;;;;18.30;100.00;100568.97;5112176;28;20476;-72
2023/08/27 06:56:07;;;;;;;3.27;1.70;;;;;;;18.39;100.00;100561.38;5112219;28;20444;-72
2023/08/27 06:58:33;;;;;;;2.90;1.10;;;;;;;18.46;100.00;100573.66;5112061;28;20429;-72
2023/08/27 07:01:04;;;;;;;3.37;1.73;;;;;;;18.52;100.00;100588.72;5112682;28;20474;-72
2023/08/27 07:03:32;;;;;;;3.77;1.77;;;;;;;18.57;100.00;100589.25;5112350;28;20429;-72
2023/08/27 07:06:00;;;;;;;3.57;1.57;;;;;;;18.63;100.00;100589.75;5095572;28;20490;-72
2023/08/27 07:08:27;;;;;;;3.20;1.30;;;;;;;18.69;100.00;100588.38;5113406;28;20444;-72
2023/08/27 07:10:54;;;;;;;5.30;1.90;;;;;;;18.77;100.00;100581.09;5113073;28;20504;-72
2023/08/27 07:13:20;;;;;;;3.87;2.00;;;;;;;18.81;100.00;100580.03;5112173;28;20481;-72
2023/08/27 07:15:47;;;;;;;4.53;1.90;;;;;;;18.88;99.48;100579.41;5111443;28;20552;-72
2023/08/27 07:18:15;;;;;;;3.80;1.80;;;;;;;18.95;99.95;100587.81;5111539;28;20500;-72
2023/08/27 07:20:43;;;;;;;3.30;1.27;;;;;;;19.06;98.88;100585.28;5111454;28;20467;-72
2023/08/27 07:23:09;;;;;;;3.60;1.83;;;;;;;19.14;98.35;100589.78;5111641;28;20471;-72
2023/08/27 07:25:36;;;;;;;4.63;1.70;;;;;;;19.26;97.22;100584.19;5111356;28;20491;-72
2023/08/27 07:28:04;;;;;;;3.10;1.30;;;;;;;19.38;96.41;100581.28;5110790;28;20516;-72
2023/08/27 07:30:31;;;;;;;3.90;1.60;;;;;;;19.50;95.89;100577.59;5093831;28;20488;-72
2023/08/27 07:32:58;;;;;;;4.57;1.80;;;;;;;19.64;95.25;100579.88;5112228;28;20436;-71
2023/08/27 07:35:25;;;;;;;4.03;1.60;;;;;;;19.74;94.92;100583.97;5110970;28;20490;-71
2023/08/27 07:37:54;;;;;;;6.57;2.00;;;;;;;19.76;93.42;100573.44;5093186;28;20437;-71
2023/08/27 07:40:20;;;;;;;3.30;1.40;;;;;;;19.77;91.62;100566.78;5110879;28;20437;-71
2023/08/27 07:42:47;;;;;;;3.73;1.87;;;;;;;19.79;89.47;100559.75;5111639;28;20432;-71
2023/08/27 07:45:14;;;;;;;3.57;1.90;;;;;;;19.84;89.14;100556.72;5110750;28;20513;-71
2023/08/27 07:47:40;;;;;;;3.10;1.50;;;;;;;19.90;88.42;100558.00;5110776;28;20432;-71
2023/08/27 07:50:08;;;;;;;3.97;1.70;;;;;;;19.97;88.33;100562.84;5111045;28;20440;-71
2023/08/27 07:52:35;;;;;;;4.37;2.07;;;;;;;20.03;88.61;100577.88;5109991;28;20433;-71
2023/08/27 07:55:04;;;;;;;3.37;1.67;;;;;;;20.14;89.37;100567.88;5110764;28;20515;-71
2023/08/27 07:57:31;;;;;;;2.63;1.00;;;;;;;20.21;89.33;100558.94;5091996;28;20460;-71
2023/08/27 07:59:58;;;;;;;3.40;1.57;;;;;;;20.31;88.01;100550.06;5109758;28;20431;-71
2023/08/27 08:02:25;;;;;;;3.00;1.10;;;;;;;20.43;87.00;100571.09;5110734;28;20494;-71
2023/08/27 08:04:51;;;;;;;2.47;1.13;;;;;;;20.50;85.66;100573.22;5095979;28;20436;-71
2023/08/27 08:07:18;;;;;;;2.70;1.13;;;;;;;20.61;85.83;100574.16;5108399;28;20443;-71
2023/08/27 08:09:45;;;;;;;3.00;0.93;;;;;;;20.71;84.45;100573.53;5106904;28;20470;-71
2023/08/27 08:12:13;;;;;;;2.30;0.80;;;;;;;20.80;82.72;100570.50;5107609;28;20480;-71
2023/08/27 08:14:40;;;;;;;3.43;0.93;;;;;;;20.89;80.07;100569.09;5107646;28;21074;-71
2023/08/27 08:17:06;;;;;;;2.70;0.80;;;;;;;20.96;78.96;100571.16;5107095;28;20472;-71
2023/08/27 08:19:33;;;;;;;2.30;0.80;;;;;;;21.00;77.83;100580.25;5107981;28;20460;-71
2023/08/27 08:22:00;;;;;;;3.43;0.70;;;;;;;21.04;77.65;100583.84;5109615;28;20444;-71
2023/08/27 08:24:27;;;;;;;3.50;0.93;;;;;;;21.08;78.19;100578.41;5109127;28;20440;-71
2023/08/27 08:26:54;;;;;;;2.10;0.80;;;;;;;21.11;79.14;100575.66;5091198;28;20577;-71
2023/08/27 08:29:22;;;;;;;2.97;1.17;;;;;;;21.16;78.30;100574.56;5108099;28;20433;-71
2023/08/27 08:31:49;;;;;;;2.20;0.77;;;;;;;21.20;76.53;100560.81;5109523;28;20496;-72
2023/08/27 08:34:15;;;;;;;2.27;0.60;;;;;;;21.25;77.77;100558.56;5089549;28;20560;-72
2023/08/27 08:36:42;;;;;;;2.50;0.80;;;;;;;21.31;77.05;100546.06;5109547;28;20465;-72
2023/08/27 08:39:08;;;;;;;2.30;0.70;;;;;;;21.32;76.43;100550.41;5107830;28;20459;-71
2023/08/27 08:41:41;;;;;;;2.30;0.77;;;;;;;21.34;74.85;100552.78;5103149;28;20558;-74
2023/08/27 08:44:19;;;;;;;2.50;1.10;;;;;;;21.28;73.86;100529.44;5097863;28;20433;-73
2023/08/27 08:46:51;;;;;;;2.30;0.60;;;;;;;21.17;74.70;100515.56;5107040;28;20498;-71
2023/08/27 08:49:22;;;;;;;2.70;1.00;;;;;;;21.14;74.19;100502.53;5108909;28;20511;-71
2023/08/27 08:51:54;;;;;;;2.10;0.60;;;;;;;21.16;74.44;100520.28;5107405;28;20946;-71
2023/08/27 08:54:25;;;;;;;2.23;0.73;;;;;;;21.24;74.83;100539.63;5107652;28;20460;-71
2023/08/27 08:56:56;;;;;;;1.97;0.67;;;;;;;21.34;71.71;100559.09;5108911;28;20464;-72
2023/08/27 08:59:27;;;;;;;2.17;0.80;;;;;;;21.45;72.59;100545.44;5107132;28;20461;-71
2023/08/27 09:01:55;;;;;;;2.00;0.57;;;;;;;21.53;71.88;100527.03;5104747;28;20435;-71
2023/08/27 09:04:23;;;;;;;2.50;0.73;;;;;;;21.63;72.10;100509.81;5107313;28;20432;-71
2023/08/27 09:06:51;;;;;;;2.63;0.77;;;;;;;21.75;70.97;100498.50;5107635;28;20547;-71
2023/08/27 09:09:18;;;;;;;2.00;0.60;;;;;;;21.87;69.84;100495.47;5105192;28;20440;-71
2023/08/27 09:11:45;;;;;;;1.90;0.50;;;;;;;21.96;69.99;100510.91;5106935;28;20429;-71
2023/08/27 09:14:12;;;;;;;2.67;0.90;;;;;;;22.03;70.98;100513.72;5107839;28;20979;-72
2023/08/27 09:16:39;;;;;;;2.00;0.50;;;;;;;22.10;71.13;100516.56;5106285;28;20565;-71
2023/08/27 09:19:08;;;;;;;3.13;1.07;;;;;;;22.08;70.00;100505.09;5104964;28;20482;-71
2023/08/27 09:21:34;;;;;;;2.00;0.60;;;;;;;22.02;67.94;100501.13;5101966;28;20436;-71
2023/08/27 09:24:01;;;;;;;2.67;1.00;;;;;;;21.95;67.62;100484.50;5103892;28;20479;-71
2023/08/27 09:26:28;;;;;;;2.50;0.90;;;;;;;22.01;66.93;100489.28;5103743;28;20492;-71
2023/08/27 09:28:56;;;;;;;2.97;1.20;;;;;;;22.06;68.92;100491.69;5088544;28;20432;-72
2023/08/27 09:31:36;;;;;;;1.90;0.50;;;;;;;22.12;68.97;100501.22;5105043;28;20440;-72
2023/08/27 09:34:03;;;;;;;2.30;0.70;;;;;;;22.16;66.11;100491.00;5103160;28;20480;-71
2023/08/27 09:36:32;;;;;;;2.50;1.07;;;;;;;22.18;62.97;100490.66;5102370;28;21010;-71
2023/08/27 09:38:59;;;;;;;2.70;0.90;;;;;;;22.14;61.65;100501.66;5100574;28;20477;-71
2023/08/27 09:41:30;;;;;;;2.50;0.70;;;;;;;22.14;61.67;100504.41;5100651;28;20478;-71
2023/08/27 09:43:57;;;;;;;2.00;0.50;;;;;;;22.08;61.75;100510.63;5100385;28;20790;-71
2023/08/27 09:46:23;;;;;;;3.27;0.90;;;;;;;22.05;60.70;100503.91;5101349;28;20485;-71
2023/08/27 09:49:08;;;;;;;2.20;0.70;;;;;;;21.99;60.23;100518.41;5095651;28;20508;-77
2023/08/27 09:51:38;;;;;;;2.60;0.63;;;;;;;22.05;61.85;100501.16;5095134;28;20429;-72
2023/08/27 09:54:13;;;;;;;2.13;0.70;;;;;;;22.03;63.08;100499.94;5100179;28;20516;-71
2023/08/27 09:56:40;;;;;;;2.20;0.70;;;;;;;22.14;62.43;100487.84;5099923;28;20440;-71
2023/08/27 09:59:06;;;;;;;2.40;0.83;;;;;;;22.28;62.41;100503.72;5098505;28;20436;-70
2023/08/27 10:01:34;;;;;;;2.10;0.63;;;;;;;22.46;62.83;100501.09;5100201;28;20482;-70
2023/08/27 10:04:03;;;;;;;2.50;0.90;;;;;;;22.51;64.29;100499.94;5106258;28;20497;-70
2023/08/27 10:06:36;;;;;;;2.07;0.60;;;;;;;22.64;63.90;100507.53;5106405;28;20452;-70
2023/08/27 10:09:04;;;;;;;2.20;0.90;;;;;;;22.61;61.85;100496.44;5106216;28;20436;-70
2023/08/27 10:11:33;;;;;;;2.20;0.80;;;;;;;22.58;61.94;100477.91;5105304;28;20515;-70
2023/08/27 10:14:00;;;;;;;2.00;0.60;;;;;;;22.64;61.32;100479.13;5104087;28;20480;-70
2023/08/27 10:16:29;;;;;;;2.20;0.60;;;;;;;22.65;59.37;100487.00;5103881;28;20975;-71
2023/08/27 10:18:57;;;;;;;2.10;0.60;;;;;;;22.51;58.26;100494.44;5102684;28;20436;-71
2023/08/27 10:21:24;;;;;;;2.20;0.60;;;;;;;22.47;57.73;100504.66;5104637;28;20460;-71
2023/08/27 10:23:54;;;;;;;1.87;0.47;;;;;;;22.40;58.45;100503.44;5104882;28;20472;-71
2023/08/27 10:26:23;;;;;;;2.93;1.10;;;;;;;22.42;62.65;100503.81;5107420;28;20457;-71
2023/08/27 10:28:51;;;;;;;3.23;0.93;;;;;;;22.37;62.24;100498.66;5106151;28;20528;-71
2023/08/27 10:31:18;;;;;;;2.10;0.67;;;;;;;22.40;61.64;100497.91;5108854;28;20811;-71
2023/08/27 10:33:45;;;;;;;2.10;0.63;;;;;;;22.42;61.45;100503.03;5107830;28;20432;-71
2023/08/27 10:36:16;;;;;;;2.60;0.60;;;;;;;22.38;58.97;100504.97;5102914;28;20492;-71
2023/08/27 10:38:45;;;;;;;2.47;0.70;;;;;;;22.50;60.15;100512.16;5107188;28;20417;-71
2023/08/27 10:41:18;;;;;;;2.23;0.70;;;;;;;22.52;56.41;100501.53;5085394;28;20432;-71
2023/08/27 10:43:45;;;;;;;3.27;0.73;;;;;;;22.59;57.98;100496.06;5105995;28;20413;-71
2023/08/27 10:46:15;;;;;;;3.13;0.90;;;;;;;22.61;58.04;100485.41;5106284;28;20456;-71
2023/08/27 10:48:48;;;;;;;2.27;0.60;;;;;;;22.74;59.42;100483.13;5105776;28;20815;-70
2023/08/27 10:51:15;;;;;;;2.23;0.77;;;;;;;22.75;57.90;100493.78;5105382;28;20453;-70
2023/08/27 10:53:55;;;;;;;3.00;0.73;;;;;;;22.79;62.20;100488.28;5106571;28;20462;-71
2023/08/27 10:56:37;;;;;;;2.10;0.80;;;;;;;22.76;58.70;100481.56;5103265;28;20488;-71
2023/08/27 10:59:09;;;;;;;2.07;0.70;;;;;;;22.70;60.64;100480.31;5102860;28;20467;-71
2023/08/27 11:01:37;;;;;;;2.20;0.63;;;;;;;22.59;58.33;100468.44;5102499;28;20486;-71
2023/08/27 11:04:05;;;;;;;2.30;0.70;;;;;;;22.64;58.24;100479.13;5100169;28;20444;-71
2023/08/27 11:06:44;;;;;;;2.20;0.80;;;;;;;22.67;60.09;100481.13;5103021;28;20480;-71
2023/08/27 11:09:23;;;;;;;2.47;0.80;;;;;;;22.71;59.77;100461.78;5103355;28;20421;-71
2023/08/27 11:11:53;;;;;;;2.47;0.70;;;;;;;22.72;61.12;100469.72;5101777;28;20847;-71
2023/08/27 11:14:21;;;;;;;2.00;0.73;;;;;;;22.75;61.53;100474.44;5103570;28;20571;-71
2023/08/27 11:16:49;;;;;;;2.20;0.70;;;;;;;22.74;63.75;100474.84;5105947;28;20942;-71
2023/08/27 11:19:29;;;;;;;2.17;0.80;;;;;;;22.61;62.23;100471.59;5103180;28;20947;-71
2023/08/27 11:22:06;;;;;;;3.10;1.10;;;;;;;22.46;60.28;100481.78;5099736;28;20452;-71
2023/08/27 11:24:33;;;;;;;2.70;0.97;;;;;;;22.34;63.06;100473.81;5103695;28;20420;-71